sensor_id;sensor_type;location;lat;lon;timestamp;temperature;humidity
53645;DHT22;39547;45.554;12.068;2024-03-17T00:05:46;11.50;84.50
53645;DHT22;39547;45.554;12.068;2024-03-17T00:11:49;11.40;84.50
53645;DHT22;39547;45.554;12.068;2024-03-17T00:17:51;11.40;84.60
53645;DHT22;39547;45.554;12.068;2024-03-17T00:23:52;11.40;84.60
53645;DHT22;39547;45.554;12.068;2024-03-17T00:29:54;11.30;84.70
53645;DHT22;39547;45.554;12.068;2024-03-17T00:35:56;11.30;84.80
53645;DHT22;39547;45.554;12.068;2024-03-17T00:41:58;11.20;84.80
53645;DHT22;39547;45.554;12.068;2024-03-17T00:47:59;11.20;85.00
53645;DHT22;39547;45.554;12.068;2024-03-17T01:01:06;11.20;85.10
53645;DHT22;39547;45.554;12.068;2024-03-17T01:07:11;11.10;85.30
53645;DHT22;39547;45.554;12.068;2024-03-17T01:13:14;11.10;85.30
53645;DHT22;39547;45.554;12.068;2024-03-17T01:19:21;11.00;85.30
53645;DHT22;39547;45.554;12.068;2024-03-17T01:25:23;11.00;85.40
53645;DHT22;39547;45.554;12.068;2024-03-17T01:31:27;10.90;85.40
53645;DHT22;39547;45.554;12.068;2024-03-17T01:37:28;10.80;85.50
53645;DHT22;39547;45.554;12.068;2024-03-17T01:43:33;10.80;85.60
53645;DHT22;39547;45.554;12.068;2024-03-17T01:49:38;10.70;85.60
53645;DHT22;39547;45.554;12.068;2024-03-17T01:55:43;10.70;85.40
53645;DHT22;39547;45.554;12.068;2024-03-17T02:01:56;10.60;85.40
53645;DHT22;39547;45.554;12.068;2024-03-17T02:08:05;10.50;85.60
53645;DHT22;39547;45.554;12.068;2024-03-17T02:14:08;10.50;85.80
53645;DHT22;39547;45.554;12.068;2024-03-17T02:20:10;10.40;85.90
53645;DHT22;39547;45.554;12.068;2024-03-17T02:26:13;10.50;86.00
53645;DHT22;39547;45.554;12.068;2024-03-17T02:32:14;10.40;85.90
53645;DHT22;39547;45.554;12.068;2024-03-17T02:38:16;10.40;86.10
53645;DHT22;39547;45.554;12.068;2024-03-17T02:44:38;10.40;86.10
53645;DHT22;39547;45.554;12.068;2024-03-17T02:50:41;10.40;86.10
53645;DHT22;39547;45.554;12.068;2024-03-17T02:56:42;10.40;86.20
53645;DHT22;39547;45.554;12.068;2024-03-17T03:02:44;10.30;86.30
53645;DHT22;39547;45.554;12.068;2024-03-17T03:08:46;10.30;86.30
53645;DHT22;39547;45.554;12.068;2024-03-17T03:14:50;10.30;86.40
53645;DHT22;39547;45.554;12.068;2024-03-17T03:20:52;10.30;86.40
53645;DHT22;39547;45.554;12.068;2024-03-17T03:26:54;10.30;86.40
53645;DHT22;39547;45.554;12.068;2024-03-17T03:32:55;10.30;86.40
53645;DHT22;39547;45.554;12.068;2024-03-17T03:38:57;10.30;86.50
53645;DHT22;39547;45.554;12.068;2024-03-17T03:44:59;10.30;86.50
53645;DHT22;39547;45.554;12.068;2024-03-17T03:51:05;10.30;86.60
53645;DHT22;39547;45.554;12.068;2024-03-17T03:57:07;10.30;86.70
53645;DHT22;39547;45.554;12.068;2024-03-17T04:03:08;10.30;86.70
53645;DHT22;39547;45.554;12.068;2024-03-17T04:09:10;10.30;86.70
53645;DHT22;39547;45.554;12.068;2024-03-17T04:15:12;10.20;86.80
53645;DHT22;39547;45.554;12.068;2024-03-17T04:21:15;10.20;86.90
53645;DHT22;39547;45.554;12.068;2024-03-17T04:27:17;10.20;87.00
53645;DHT22;39547;45.554;12.068;2024-03-17T04:33:20;10.10;87.00
53645;DHT22;39547;45.554;12.068;2024-03-17T04:39:22;10.20;87.10
53645;DHT22;39547;45.554;12.068;2024-03-17T04:45:24;10.10;87.00
53645;DHT22;39547;45.554;12.068;2024-03-17T04:51:26;10.10;87.00
53645;DHT22;39547;45.554;12.068;2024-03-17T04:57:30;10.10;87.00
53645;DHT22;39547;45.554;12.068;2024-03-17T05:03:32;10.00;87.00
53645;DHT22;39547;45.554;12.068;2024-03-17T05:09:34;10.00;87.10
53645;DHT22;39547;45.554;12.068;2024-03-17T05:15:37;10.00;87.10
53645;DHT22;39547;45.554;12.068;2024-03-17T05:21:39;9.90;87.10
53645;DHT22;39547;45.554;12.068;2024-03-17T05:27:40;9.80;87.20
53645;DHT22;39547;45.554;12.068;2024-03-17T05:33:45;9.80;87.30
53645;DHT22;39547;45.554;12.068;2024-03-17T05:39:46;9.70;87.40
53645;DHT22;39547;45.554;12.068;2024-03-17T05:45:50;9.80;87.50
53645;DHT22;39547;45.554;12.068;2024-03-17T05:51:52;9.80;87.40
53645;DHT22;39547;45.554;12.068;2024-03-17T05:57:55;9.80;87.40
53645;DHT22;39547;45.554;12.068;2024-03-17T06:03:56;9.80;87.30
53645;DHT22;39547;45.554;12.068;2024-03-17T06:09:58;9.80;87.30
53645;DHT22;39547;45.554;12.068;2024-03-17T06:16:02;9.90;87.40
53645;DHT22;39547;45.554;12.068;2024-03-17T06:22:04;9.90;87.30
53645;DHT22;39547;45.554;12.068;2024-03-17T06:28:06;9.90;87.30
53645;DHT22;39547;45.554;12.068;2024-03-17T06:34:08;10.00;87.30
53645;DHT22;39547;45.554;12.068;2024-03-17T06:40:13;10.00;87.40
53645;DHT22;39547;45.554;12.068;2024-03-17T06:46:15;10.20;87.50
53645;DHT22;39547;45.554;12.068;2024-03-17T06:52:17;10.20;87.40
53645;DHT22;39547;45.554;12.068;2024-03-17T06:58:18;10.40;87.50
53645;DHT22;39547;45.554;12.068;2024-03-17T07:04:23;10.60;87.60
53645;DHT22;39547;45.554;12.068;2024-03-17T07:10:26;10.80;87.60
53645;DHT22;39547;45.554;12.068;2024-03-17T07:16:28;11.00;87.60
53645;DHT22;39547;45.554;12.068;2024-03-17T07:22:30;11.20;87.50
53645;DHT22;39547;45.554;12.068;2024-03-17T07:28:31;11.60;87.40
53645;DHT22;39547;45.554;12.068;2024-03-17T07:34:33;11.90;87.20
53645;DHT22;39547;45.554;12.068;2024-03-17T07:40:36;12.20;86.90
53645;DHT22;39547;45.554;12.068;2024-03-17T07:46:38;12.50;86.80
53645;DHT22;39547;45.554;12.068;2024-03-17T07:52:39;12.70;86.60
53645;DHT22;39547;45.554;12.068;2024-03-17T07:58:42;12.90;86.40
53645;DHT22;39547;45.554;12.068;2024-03-17T08:04:44;13.10;86.20
53645;DHT22;39547;45.554;12.068;2024-03-17T08:10:46;13.20;86.10
53645;DHT22;39547;45.554;12.068;2024-03-17T08:16:49;13.20;86.10
53645;DHT22;39547;45.554;12.068;2024-03-17T08:22:51;13.20;86.10
53645;DHT22;39547;45.554;12.068;2024-03-17T08:28:56;13.20;86.00
53645;DHT22;39547;45.554;12.068;2024-03-17T08:34:58;13.40;86.00
53645;DHT22;39547;45.554;12.068;2024-03-17T08:41:09;13.60;85.80
53645;DHT22;39547;45.554;12.068;2024-03-17T08:47:11;13.70;85.70
53645;DHT22;39547;45.554;12.068;2024-03-17T08:53:13;13.90;85.50
53645;DHT22;39547;45.554;12.068;2024-03-17T08:59:22;14.20;85.10
53645;DHT22;39547;45.554;12.068;2024-03-17T09:05:27;14.60;84.70
53645;DHT22;39547;45.554;12.068;2024-03-17T09:11:32;14.90;84.00
53645;DHT22;39547;45.554;12.068;2024-03-17T09:17:33;15.20;83.10
53645;DHT22;39547;45.554;12.068;2024-03-17T09:23:35;15.50;82.70
53645;DHT22;39547;45.554;12.068;2024-03-17T09:29:36;15.60;80.70
53645;DHT22;39547;45.554;12.068;2024-03-17T09:35:39;15.60;80.90
53645;DHT22;39547;45.554;12.068;2024-03-17T09:41:43;15.60;81.10
53645;DHT22;39547;45.554;12.068;2024-03-17T09:47:46;15.70;81.30
53645;DHT22;39547;45.554;12.068;2024-03-17T09:53:49;15.80;80.20
53645;DHT22;39547;45.554;12.068;2024-03-17T09:59:54;16.00;80.20
53645;DHT22;39547;45.554;12.068;2024-03-17T10:06:00;16.20;78.40
53645;DHT22;39547;45.554;12.068;2024-03-17T10:12:03;16.30;79.20
53645;DHT22;39547;45.554;12.068;2024-03-17T10:18:23;16.60;79.00
53645;DHT22;39547;45.554;12.068;2024-03-17T10:24:26;16.80;78.40
53645;DHT22;39547;45.554;12.068;2024-03-17T10:30:31;17.20;76.50
53645;DHT22;39547;45.554;12.068;2024-03-17T10:36:35;17.40;75.00
53645;DHT22;39547;45.554;12.068;2024-03-17T10:43:02;17.50;76.30
53645;DHT22;39547;45.554;12.068;2024-03-17T10:49:23;17.60;76.20
53645;DHT22;39547;45.554;12.068;2024-03-17T10:55:36;17.70;76.00
53645;DHT22;39547;45.554;12.068;2024-03-17T11:01:42;17.80;74.50
53645;DHT22;39547;45.554;12.068;2024-03-17T11:07:53;17.90;74.70
53645;DHT22;39547;45.554;12.068;2024-03-17T11:14:16;17.80;73.90
53645;DHT22;39547;45.554;12.068;2024-03-17T11:20:26;17.80;74.60
53645;DHT22;39547;45.554;12.068;2024-03-17T11:26:36;17.90;74.30
53645;DHT22;39547;45.554;12.068;2024-03-17T11:32:47;18.10;73.60
53645;DHT22;39547;45.554;12.068;2024-03-17T11:39:07;18.10;73.60
53645;DHT22;39547;45.554;12.068;2024-03-17T11:45:18;18.10;74.50
53645;DHT22;39547;45.554;12.068;2024-03-17T11:51:23;18.20;74.40
53645;DHT22;39547;45.554;12.068;2024-03-17T11:57:26;18.30;74.00
53645;DHT22;39547;45.554;12.068;2024-03-17T12:03:31;18.30;72.90
53645;DHT22;39547;45.554;12.068;2024-03-17T12:09:38;18.40;73.20
53645;DHT22;39547;45.554;12.068;2024-03-17T12:15:41;18.50;73.50
53645;DHT22;39547;45.554;12.068;2024-03-17T12:21:51;18.70;73.60
53645;DHT22;39547;45.554;12.068;2024-03-17T12:27:58;18.70;72.80
53645;DHT22;39547;45.554;12.068;2024-03-17T12:34:06;18.60;73.00
53645;DHT22;39547;45.554;12.068;2024-03-17T12:40:18;18.40;73.50
53645;DHT22;39547;45.554;12.068;2024-03-17T12:46:21;18.30;73.50
53645;DHT22;39547;45.554;12.068;2024-03-17T12:52:27;18.30;73.50
53645;DHT22;39547;45.554;12.068;2024-03-17T12:58:29;18.40;73.60
53645;DHT22;39547;45.554;12.068;2024-03-17T13:05:19;18.50;73.70
53645;DHT22;39547;45.554;12.068;2024-03-17T13:11:26;18.50;73.70
53645;DHT22;39547;45.554;12.068;2024-03-17T13:17:33;18.50;73.60
53645;DHT22;39547;45.554;12.068;2024-03-17T13:23:38;18.80;73.70
53645;DHT22;39547;45.554;12.068;2024-03-17T13:29:53;19.00;72.80
53645;DHT22;39547;45.554;12.068;2024-03-17T13:36:00;19.20;71.70
53645;DHT22;39547;45.554;12.068;2024-03-17T13:42:05;19.50;71.50
53645;DHT22;39547;45.554;12.068;2024-03-17T13:48:08;19.70;70.90
53645;DHT22;39547;45.554;12.068;2024-03-17T13:54:19;19.90;70.10
53645;DHT22;39547;45.554;12.068;2024-03-17T14:00:24;19.80;69.70
53645;DHT22;39547;45.554;12.068;2024-03-17T14:06:28;19.70;69.20
53645;DHT22;39547;45.554;12.068;2024-03-17T14:12:33;19.30;69.90
53645;DHT22;39547;45.554;12.068;2024-03-17T14:19:17;19.00;70.50
53645;DHT22;39547;45.554;12.068;2024-03-17T14:25:29;18.90;70.70
53645;DHT22;39547;45.554;12.068;2024-03-17T14:31:35;18.70;70.90
53645;DHT22;39547;45.554;12.068;2024-03-17T14:37:43;18.50;70.70
53645;DHT22;39547;45.554;12.068;2024-03-17T14:43:51;18.30;70.90
53645;DHT22;39547;45.554;12.068;2024-03-17T14:49:57;18.20;70.80
53645;DHT22;39547;45.554;12.068;2024-03-17T14:56:29;18.10;71.20
53645;DHT22;39547;45.554;12.068;2024-03-17T15:02:50;18.00;71.40
53645;DHT22;39547;45.554;12.068;2024-03-17T15:08:56;17.90;71.60
53645;DHT22;39547;45.554;12.068;2024-03-17T15:15:10;17.80;71.70
53645;DHT22;39547;45.554;12.068;2024-03-17T15:21:22;17.70;71.90
53645;DHT22;39547;45.554;12.068;2024-03-17T15:27:36;17.70;71.90
53645;DHT22;39547;45.554;12.068;2024-03-17T15:33:39;17.50;72.30
53645;DHT22;39547;45.554;12.068;2024-03-17T15:40:02;17.30;72.50
53645;DHT22;39547;45.554;12.068;2024-03-17T15:46:15;17.20;72.70
53645;DHT22;39547;45.554;12.068;2024-03-17T15:52:21;17.00;73.00
53645;DHT22;39547;45.554;12.068;2024-03-17T15:58:37;16.90;73.30
53645;DHT22;39547;45.554;12.068;2024-03-17T16:11:24;16.70;73.80
53645;DHT22;39547;45.554;12.068;2024-03-17T16:17:32;16.60;74.00
53645;DHT22;39547;45.554;12.068;2024-03-17T16:23:43;16.40;74.20
53645;DHT22;39547;45.554;12.068;2024-03-17T16:29:55;16.30;74.40
53645;DHT22;39547;45.554;12.068;2024-03-17T16:36:07;16.20;74.50
53645;DHT22;39547;45.554;12.068;2024-03-17T16:48:55;16.10;74.70
53645;DHT22;39547;45.554;12.068;2024-03-17T16:55:00;16.00;74.80
53645;DHT22;39547;45.554;12.068;2024-03-17T17:07:47;15.80;75.10
53645;DHT22;39547;45.554;12.068;2024-03-17T17:13:54;15.60;75.30
53645;DHT22;39547;45.554;12.068;2024-03-17T17:19:58;15.50;75.50
53645;DHT22;39547;45.554;12.068;2024-03-17T17:26:03;15.30;75.70
53645;DHT22;39547;45.554;12.068;2024-03-17T17:52:46;14.80;76.50
53645;DHT22;39547;45.554;12.068;2024-03-17T18:20:57;14.50;77.20
53645;DHT22;39547;45.554;12.068;2024-03-17T18:41:31;14.20;77.90
53645;DHT22;39547;45.554;12.068;2024-03-17T18:47:34;14.00;78.10
53645;DHT22;39547;45.554;12.068;2024-03-17T18:53:57;14.00;78.30
53645;DHT22;39547;45.554;12.068;2024-03-17T19:06:26;13.80;78.70
53645;DHT22;39547;45.554;12.068;2024-03-17T19:12:41;13.80;78.90
53645;DHT22;39547;45.554;12.068;2024-03-17T19:19:03;13.70;79.10
53645;DHT22;39547;45.554;12.068;2024-03-17T19:25:09;13.70;79.40
53645;DHT22;39547;45.554;12.068;2024-03-17T19:31:17;13.70;79.50
53645;DHT22;39547;45.554;12.068;2024-03-17T19:37:25;13.60;79.60
53645;DHT22;39547;45.554;12.068;2024-03-17T19:43:30;13.60;79.80
53645;DHT22;39547;45.554;12.068;2024-03-17T19:49:45;13.60;80.00
53645;DHT22;39547;45.554;12.068;2024-03-17T19:55:50;13.60;80.20
53645;DHT22;39547;45.554;12.068;2024-03-17T20:01:57;13.60;80.30
53645;DHT22;39547;45.554;12.068;2024-03-17T20:08:06;13.60;80.60
53645;DHT22;39547;45.554;12.068;2024-03-17T20:14:27;13.60;80.70
53645;DHT22;39547;45.554;12.068;2024-03-17T20:20:49;13.70;80.90
53645;DHT22;39547;45.554;12.068;2024-03-17T20:27:00;13.70;81.00
53645;DHT22;39547;45.554;12.068;2024-03-17T20:33:04;13.70;81.00
53645;DHT22;39547;45.554;12.068;2024-03-17T20:39:23;13.70;81.00
53645;DHT22;39547;45.554;12.068;2024-03-17T20:52:39;13.80;81.20
53645;DHT22;39547;45.554;12.068;2024-03-17T20:58:46;13.80;81.50
53645;DHT22;39547;45.554;12.068;2024-03-17T21:04:50;13.70;81.60
53645;DHT22;39547;45.554;12.068;2024-03-17T21:11:03;13.70;81.70
53645;DHT22;39547;45.554;12.068;2024-03-17T21:17:33;13.50;81.80
53645;DHT22;39547;45.554;12.068;2024-03-17T21:23:55;13.50;82.10
53645;DHT22;39547;45.554;12.068;2024-03-17T21:30:08;13.30;82.30
53645;DHT22;39547;45.554;12.068;2024-03-17T21:36:21;13.30;82.30
53645;DHT22;39547;45.554;12.068;2024-03-17T21:42:28;13.30;82.50
53645;DHT22;39547;45.554;12.068;2024-03-17T21:48:36;13.20;82.70
53645;DHT22;39547;45.554;12.068;2024-03-17T21:54:39;13.10;82.80
53645;DHT22;39547;45.554;12.068;2024-03-17T22:00:41;13.00;83.00
53645;DHT22;39547;45.554;12.068;2024-03-17T22:06:43;13.00;83.20
53645;DHT22;39547;45.554;12.068;2024-03-17T22:12:48;12.90;83.30
53645;DHT22;39547;45.554;12.068;2024-03-17T22:18:49;12.90;83.40
53645;DHT22;39547;45.554;12.068;2024-03-17T22:24:51;12.90;83.50
53645;DHT22;39547;45.554;12.068;2024-03-17T22:30:54;12.80;83.60
53645;DHT22;39547;45.554;12.068;2024-03-17T22:36:56;12.80;83.80
53645;DHT22;39547;45.554;12.068;2024-03-17T22:42:57;12.80;84.10
53645;DHT22;39547;45.554;12.068;2024-03-17T22:48:59;12.70;84.30
53645;DHT22;39547;45.554;12.068;2024-03-17T22:55:00;12.60;84.40
53645;DHT22;39547;45.554;12.068;2024-03-17T23:01:02;12.50;84.50
53645;DHT22;39547;45.554;12.068;2024-03-17T23:07:05;12.50;84.60
53645;DHT22;39547;45.554;12.068;2024-03-17T23:13:07;12.50;84.70
53645;DHT22;39547;45.554;12.068;2024-03-17T23:19:09;12.60;84.70
53645;DHT22;39547;45.554;12.068;2024-03-17T23:25:11;12.50;84.70
53645;DHT22;39547;45.554;12.068;2024-03-17T23:31:13;12.50;84.70
53645;DHT22;39547;45.554;12.068;2024-03-17T23:37:15;12.50;84.90
53645;DHT22;39547;45.554;12.068;2024-03-17T23:43:18;12.50;84.90
53645;DHT22;39547;45.554;12.068;2024-03-17T23:49:19;12.50;85.00
53645;DHT22;39547;45.554;12.068;2024-03-17T23:55:28;12.50;85.10
